sensor_id;sensor_type;location;lat;lon;timestamp;temperature;humidity
4699;DHT22;33708;49.466;11.176;2024-02-28T00:02:22;6.30;89.20
4699;DHT22;33708;49.466;11.176;2024-02-28T00:04:47;6.40;90.30
4699;DHT22;33708;49.466;11.176;2024-02-28T00:07:13;6.50;91.60
4699;DHT22;33708;49.466;11.176;2024-02-28T00:09:38;6.60;92.50
4699;DHT22;33708;49.466;11.176;2024-02-28T00:12:04;6.50;90.50
4699;DHT22;33708;49.466;11.176;2024-02-28T00:14:30;6.40;90.00
4699;DHT22;33708;49.466;11.176;2024-02-28T00:16:55;6.50;90.30
4699;DHT22;33708;49.466;11.176;2024-02-28T00:19:21;6.50;90.50
4699;DHT22;33708;49.466;11.176;2024-02-28T00:21:47;6.70;91.70
4699;DHT22;33708;49.466;11.176;2024-02-28T00:24:13;6.60;90.60
4699;DHT22;33708;49.466;11.176;2024-02-28T00:26:42;6.60;90.80
4699;DHT22;33708;49.466;11.176;2024-02-28T00:29:11;6.70;91.60
4699;DHT22;33708;49.466;11.176;2024-02-28T00:31:36;6.80;91.80
4699;DHT22;33708;49.466;11.176;2024-02-28T00:34:02;6.80;91.80
4699;DHT22;33708;49.466;11.176;2024-02-28T00:36:28;6.90;92.00
4699;DHT22;33708;49.466;11.176;2024-02-28T00:38:53;7.00;92.60
4699;DHT22;33708;49.466;11.176;2024-02-28T00:41:19;6.80;91.10
4699;DHT22;33708;49.466;11.176;2024-02-28T00:43:44;6.70;89.70
4699;DHT22;33708;49.466;11.176;2024-02-28T00:46:10;6.70;90.00
4699;DHT22;33708;49.466;11.176;2024-02-28T00:48:40;6.60;89.70
4699;DHT22;33708;49.466;11.176;2024-02-28T00:51:06;6.60;90.30
4699;DHT22;33708;49.466;11.176;2024-02-28T00:53:33;6.80;91.80
4699;DHT22;33708;49.466;11.176;2024-02-28T00:55:59;6.70;90.20
4699;DHT22;33708;49.466;11.176;2024-02-28T00:58:25;6.50;87.90
4699;DHT22;33708;49.466;11.176;2024-02-28T01:00:53;6.50;87.70
4699;DHT22;33708;49.466;11.176;2024-02-28T01:03:18;6.50;88.10
4699;DHT22;33708;49.466;11.176;2024-02-28T01:05:44;6.30;83.50
4699;DHT22;33708;49.466;11.176;2024-02-28T01:08:10;6.20;83.10
4699;DHT22;33708;49.466;11.176;2024-02-28T01:10:35;6.30;87.50
4699;DHT22;33708;49.466;11.176;2024-02-28T01:13:02;6.50;88.90
4699;DHT22;33708;49.466;11.176;2024-02-28T01:15:27;6.50;89.90
4699;DHT22;33708;49.466;11.176;2024-02-28T01:17:53;6.50;88.20
4699;DHT22;33708;49.466;11.176;2024-02-28T01:20:19;6.30;84.80
4699;DHT22;33708;49.466;11.176;2024-02-28T01:22:44;6.40;87.30
4699;DHT22;33708;49.466;11.176;2024-02-28T01:25:10;6.30;85.10
4699;DHT22;33708;49.466;11.176;2024-02-28T01:27:36;6.40;85.20
4699;DHT22;33708;49.466;11.176;2024-02-28T01:30:02;6.30;85.90
4699;DHT22;33708;49.466;11.176;2024-02-28T01:32:28;6.10;81.70
4699;DHT22;33708;49.466;11.176;2024-02-28T01:34:54;6.10;81.40
4699;DHT22;33708;49.466;11.176;2024-02-28T01:37:20;6.00;81.10
4699;DHT22;33708;49.466;11.176;2024-02-28T01:39:45;6.10;81.60
4699;DHT22;33708;49.466;11.176;2024-02-28T01:42:11;6.00;81.00
4699;DHT22;33708;49.466;11.176;2024-02-28T01:44:43;5.90;79.80
4699;DHT22;33708;49.466;11.176;2024-02-28T01:47:09;6.00;83.70
4699;DHT22;33708;49.466;11.176;2024-02-28T01:49:35;5.90;80.00
4699;DHT22;33708;49.466;11.176;2024-02-28T01:52:01;6.00;80.50
4699;DHT22;33708;49.466;11.176;2024-02-28T01:54:27;6.00;81.70
4699;DHT22;33708;49.466;11.176;2024-02-28T01:56:55;5.90;81.30
4699;DHT22;33708;49.466;11.176;2024-02-28T01:59:23;5.90;81.20
4699;DHT22;33708;49.466;11.176;2024-02-28T02:01:50;6.00;82.70
4699;DHT22;33708;49.466;11.176;2024-02-28T02:04:16;6.10;82.40
4699;DHT22;33708;49.466;11.176;2024-02-28T02:06:43;6.00;83.20
4699;DHT22;33708;49.466;11.176;2024-02-28T02:09:10;6.10;83.80
4699;DHT22;33708;49.466;11.176;2024-02-28T02:11:35;6.10;83.40
4699;DHT22;33708;49.466;11.176;2024-02-28T02:14:01;6.00;82.20
4699;DHT22;33708;49.466;11.176;2024-02-28T02:16:26;6.10;83.40
4699;DHT22;33708;49.466;11.176;2024-02-28T02:18:52;6.00;81.70
4699;DHT22;33708;49.466;11.176;2024-02-28T02:21:20;5.90;80.90
4699;DHT22;33708;49.466;11.176;2024-02-28T02:23:48;6.00;82.70
4699;DHT22;33708;49.466;11.176;2024-02-28T02:26:13;6.20;85.60
4699;DHT22;33708;49.466;11.176;2024-02-28T02:28:39;6.20;85.40
4699;DHT22;33708;49.466;11.176;2024-02-28T02:31:04;6.30;84.30
4699;DHT22;33708;49.466;11.176;2024-02-28T02:33:30;6.30;86.20
4699;DHT22;33708;49.466;11.176;2024-02-28T02:35:56;6.20;84.60
4699;DHT22;33708;49.466;11.176;2024-02-28T02:38:21;6.30;86.20
4699;DHT22;33708;49.466;11.176;2024-02-28T02:40:50;6.20;84.70
4699;DHT22;33708;49.466;11.176;2024-02-28T02:43:16;6.30;85.60
4699;DHT22;33708;49.466;11.176;2024-02-28T02:45:42;6.40;88.50
4699;DHT22;33708;49.466;11.176;2024-02-28T02:48:08;6.40;87.60
4699;DHT22;33708;49.466;11.176;2024-02-28T02:50:34;6.60;89.40
4699;DHT22;33708;49.466;11.176;2024-02-28T02:53:00;6.50;85.00
4699;DHT22;33708;49.466;11.176;2024-02-28T02:55:25;6.30;84.40
4699;DHT22;33708;49.466;11.176;2024-02-28T02:57:51;6.50;86.20
4699;DHT22;33708;49.466;11.176;2024-02-28T03:00:17;6.50;86.30
4699;DHT22;33708;49.466;11.176;2024-02-28T03:02:42;6.60;89.00
4699;DHT22;33708;49.466;11.176;2024-02-28T03:05:08;6.70;89.20
4699;DHT22;33708;49.466;11.176;2024-02-28T03:07:34;6.60;86.80
4699;DHT22;33708;49.466;11.176;2024-02-28T03:10:00;6.50;86.50
4699;DHT22;33708;49.466;11.176;2024-02-28T03:12:25;6.50;86.20
4699;DHT22;33708;49.466;11.176;2024-02-28T03:14:51;6.50;88.30
4699;DHT22;33708;49.466;11.176;2024-02-28T03:17:16;6.60;89.40
4699;DHT22;33708;49.466;11.176;2024-02-28T03:19:42;6.50;86.60
4699;DHT22;33708;49.466;11.176;2024-02-28T03:22:08;6.70;90.00
4699;DHT22;33708;49.466;11.176;2024-02-28T03:24:33;6.70;88.90
4699;DHT22;33708;49.466;11.176;2024-02-28T03:27:02;6.70;89.20
4699;DHT22;33708;49.466;11.176;2024-02-28T03:29:28;6.80;87.00
4699;DHT22;33708;49.466;11.176;2024-02-28T03:31:54;6.80;90.70
4699;DHT22;33708;49.466;11.176;2024-02-28T03:34:20;6.90;98.30
4699;DHT22;33708;49.466;11.176;2024-02-28T03:36:45;6.90;90.40
4699;DHT22;33708;49.466;11.176;2024-02-28T03:39:11;6.90;89.40
4699;DHT22;33708;49.466;11.176;2024-02-28T03:41:37;6.90;91.20
4699;DHT22;33708;49.466;11.176;2024-02-28T03:44:03;6.90;90.30
4699;DHT22;33708;49.466;11.176;2024-02-28T03:46:29;7.00;91.00
4699;DHT22;33708;49.466;11.176;2024-02-28T03:48:55;7.10;90.30
4699;DHT22;33708;49.466;11.176;2024-02-28T03:51:20;7.10;91.10
4699;DHT22;33708;49.466;11.176;2024-02-28T03:53:46;7.00;88.10
4699;DHT22;33708;49.466;11.176;2024-02-28T03:56:12;7.00;90.90
4699;DHT22;33708;49.466;11.176;2024-02-28T03:58:37;7.00;90.50
4699;DHT22;33708;49.466;11.176;2024-02-28T04:01:03;6.90;88.20
4699;DHT22;33708;49.466;11.176;2024-02-28T04:03:29;6.80;85.20
4699;DHT22;33708;49.466;11.176;2024-02-28T04:05:54;6.90;88.40
4699;DHT22;33708;49.466;11.176;2024-02-28T04:08:20;6.90;88.90
4699;DHT22;33708;49.466;11.176;2024-02-28T04:10:46;6.80;84.60
4699;DHT22;33708;49.466;11.176;2024-02-28T04:13:11;6.70;84.90
4699;DHT22;33708;49.466;11.176;2024-02-28T04:15:37;6.90;87.90
4699;DHT22;33708;49.466;11.176;2024-02-28T04:18:04;7.00;90.50
4699;DHT22;33708;49.466;11.176;2024-02-28T04:20:30;7.10;90.30
4699;DHT22;33708;49.466;11.176;2024-02-28T04:22:55;7.00;90.50
4699;DHT22;33708;49.466;11.176;2024-02-28T04:25:21;7.00;89.30
4699;DHT22;33708;49.466;11.176;2024-02-28T04:27:47;7.00;88.60
4699;DHT22;33708;49.466;11.176;2024-02-28T04:30:13;7.00;87.20
4699;DHT22;33708;49.466;11.176;2024-02-28T04:32:38;7.00;88.10
4699;DHT22;33708;49.466;11.176;2024-02-28T04:35:04;6.90;88.50
4699;DHT22;33708;49.466;11.176;2024-02-28T04:37:30;6.90;85.90
4699;DHT22;33708;49.466;11.176;2024-02-28T04:39:55;6.90;88.10
4699;DHT22;33708;49.466;11.176;2024-02-28T04:42:21;6.90;87.20
4699;DHT22;33708;49.466;11.176;2024-02-28T04:44:46;7.00;89.20
4699;DHT22;33708;49.466;11.176;2024-02-28T04:47:12;7.00;89.60
4699;DHT22;33708;49.466;11.176;2024-02-28T04:49:38;7.10;89.50
4699;DHT22;33708;49.466;11.176;2024-02-28T04:52:06;6.80;85.30
4699;DHT22;33708;49.466;11.176;2024-02-28T04:54:32;6.80;84.90
4699;DHT22;33708;49.466;11.176;2024-02-28T04:56:58;6.80;85.30
4699;DHT22;33708;49.466;11.176;2024-02-28T04:59:24;6.50;81.10
4699;DHT22;33708;49.466;11.176;2024-02-28T05:01:49;6.70;85.60
4699;DHT22;33708;49.466;11.176;2024-02-28T05:04:15;6.70;86.30
4699;DHT22;33708;49.466;11.176;2024-02-28T05:06:40;6.60;84.40
4699;DHT22;33708;49.466;11.176;2024-02-28T05:09:06;6.20;79.50
4699;DHT22;33708;49.466;11.176;2024-02-28T05:11:32;6.10;76.40
4699;DHT22;33708;49.466;11.176;2024-02-28T05:13:58;6.20;78.90
4699;DHT22;33708;49.466;11.176;2024-02-28T05:16:23;6.30;81.40
4699;DHT22;33708;49.466;11.176;2024-02-28T05:18:49;6.30;79.70
4699;DHT22;33708;49.466;11.176;2024-02-28T05:21:14;6.40;81.40
4699;DHT22;33708;49.466;11.176;2024-02-28T05:23:40;6.40;81.40
4699;DHT22;33708;49.466;11.176;2024-02-28T05:26:06;6.30;81.50
4699;DHT22;33708;49.466;11.176;2024-02-28T05:28:35;6.20;78.70
4699;DHT22;33708;49.466;11.176;2024-02-28T05:31:24;6.20;79.00
4699;DHT22;33708;49.466;11.176;2024-02-28T05:33:51;5.90;75.50
4699;DHT22;33708;49.466;11.176;2024-02-28T05:36:17;6.20;82.10
4699;DHT22;33708;49.466;11.176;2024-02-28T05:38:43;6.30;81.90
4699;DHT22;33708;49.466;11.176;2024-02-28T05:41:08;6.40;84.50
4699;DHT22;33708;49.466;11.176;2024-02-28T05:43:34;6.50;84.70
4699;DHT22;33708;49.466;11.176;2024-02-28T05:46:01;6.00;79.10
4699;DHT22;33708;49.466;11.176;2024-02-28T05:48:28;6.10;79.70
4699;DHT22;33708;49.466;11.176;2024-02-28T05:50:53;6.30;82.00
4699;DHT22;33708;49.466;11.176;2024-02-28T05:53:19;6.20;81.70
4699;DHT22;33708;49.466;11.176;2024-02-28T05:55:45;6.30;84.90
4699;DHT22;33708;49.466;11.176;2024-02-28T05:58:10;6.30;83.40
4699;DHT22;33708;49.466;11.176;2024-02-28T06:00:36;6.40;83.80
4699;DHT22;33708;49.466;11.176;2024-02-28T06:03:03;6.30;84.00
4699;DHT22;33708;49.466;11.176;2024-02-28T06:05:28;6.50;86.80
4699;DHT22;33708;49.466;11.176;2024-02-28T06:07:54;6.40;85.90
4699;DHT22;33708;49.466;11.176;2024-02-28T06:10:19;6.40;85.00
4699;DHT22;33708;49.466;11.176;2024-02-28T06:12:46;6.60;89.20
4699;DHT22;33708;49.466;11.176;2024-02-28T06:15:12;6.50;84.30
4699;DHT22;33708;49.466;11.176;2024-02-28T06:17:38;6.60;88.80
4699;DHT22;33708;49.466;11.176;2024-02-28T06:20:04;6.60;87.60
4699;DHT22;33708;49.466;11.176;2024-02-28T06:22:30;6.40;83.20
4699;DHT22;33708;49.466;11.176;2024-02-28T06:24:56;6.40;84.50
4699;DHT22;33708;49.466;11.176;2024-02-28T06:27:21;6.10;85.80
4699;DHT22;33708;49.466;11.176;2024-02-28T06:29:47;6.60;88.30
4699;DHT22;33708;49.466;11.176;2024-02-28T06:32:14;6.70;90.10
4699;DHT22;33708;49.466;11.176;2024-02-28T06:34:40;6.70;90.30
4699;DHT22;33708;49.466;11.176;2024-02-28T06:37:05;6.80;90.40
4699;DHT22;33708;49.466;11.176;2024-02-28T06:39:31;6.70;88.10
4699;DHT22;33708;49.466;11.176;2024-02-28T06:41:56;6.70;90.00
4699;DHT22;33708;49.466;11.176;2024-02-28T06:44:22;6.90;91.10
4699;DHT22;33708;49.466;11.176;2024-02-28T06:46:47;7.00;92.90
4699;DHT22;33708;49.466;11.176;2024-02-28T06:49:13;7.00;92.40
4699;DHT22;33708;49.466;11.176;2024-02-28T06:51:38;6.90;89.50
4699;DHT22;33708;49.466;11.176;2024-02-28T06:54:04;6.90;89.70
4699;DHT22;33708;49.466;11.176;2024-02-28T06:56:32;7.10;92.20
4699;DHT22;33708;49.466;11.176;2024-02-28T06:58:58;6.80;88.20
4699;DHT22;33708;49.466;11.176;2024-02-28T07:01:23;6.80;87.20
4699;DHT22;33708;49.466;11.176;2024-02-28T07:03:49;6.80;90.80
4699;DHT22;33708;49.466;11.176;2024-02-28T07:06:15;7.00;99.90
4699;DHT22;33708;49.466;11.176;2024-02-28T07:08:40;7.10;91.60
4699;DHT22;33708;49.466;11.176;2024-02-28T07:11:13;7.00;90.80
4699;DHT22;33708;49.466;11.176;2024-02-28T07:13:39;7.20;93.00
4699;DHT22;33708;49.466;11.176;2024-02-28T07:16:05;7.40;93.40
4699;DHT22;33708;49.466;11.176;2024-02-28T07:18:32;7.50;95.00
4699;DHT22;33708;49.466;11.176;2024-02-28T07:20:57;7.50;94.60
4699;DHT22;33708;49.466;11.176;2024-02-28T07:23:23;7.60;95.00
4699;DHT22;33708;49.466;11.176;2024-02-28T07:25:48;7.60;98.10
4699;DHT22;33708;49.466;11.176;2024-02-28T07:28:14;7.70;95.60
4699;DHT22;33708;49.466;11.176;2024-02-28T07:30:39;8.10;96.20
4699;DHT22;33708;49.466;11.176;2024-02-28T07:33:05;7.70;93.70
4699;DHT22;33708;49.466;11.176;2024-02-28T07:35:31;7.80;95.40
4699;DHT22;33708;49.466;11.176;2024-02-28T07:37:56;8.00;97.20
4699;DHT22;33708;49.466;11.176;2024-02-28T07:40:22;7.70;92.00
4699;DHT22;33708;49.466;11.176;2024-02-28T07:42:48;7.60;88.50
4699;DHT22;33708;49.466;11.176;2024-02-28T07:45:13;7.80;95.20
4699;DHT22;33708;49.466;11.176;2024-02-28T07:47:39;8.00;99.90
4699;DHT22;33708;49.466;11.176;2024-02-28T07:50:06;8.00;94.00
4699;DHT22;33708;49.466;11.176;2024-02-28T07:52:32;8.10;93.90
4699;DHT22;33708;49.466;11.176;2024-02-28T07:55:00;8.20;94.70
4699;DHT22;33708;49.466;11.176;2024-02-28T07:57:27;8.20;95.00
4699;DHT22;33708;49.466;11.176;2024-02-28T07:59:52;8.30;95.30
4699;DHT22;33708;49.466;11.176;2024-02-28T08:02:18;8.40;95.30
4699;DHT22;33708;49.466;11.176;2024-02-28T08:04:45;8.30;94.50
4699;DHT22;33708;49.466;11.176;2024-02-28T08:07:11;8.20;92.40
4699;DHT22;33708;49.466;11.176;2024-02-28T08:09:37;8.30;93.90
4699;DHT22;33708;49.466;11.176;2024-02-28T08:12:02;8.40;94.80
4699;DHT22;33708;49.466;11.176;2024-02-28T08:14:28;8.50;93.50
4699;DHT22;33708;49.466;11.176;2024-02-28T08:16:54;8.60;94.50
4699;DHT22;33708;49.466;11.176;2024-02-28T08:19:20;8.60;94.20
4699;DHT22;33708;49.466;11.176;2024-02-28T08:21:45;8.60;93.60
4699;DHT22;33708;49.466;11.176;2024-02-28T08:24:11;8.70;93.80
4699;DHT22;33708;49.466;11.176;2024-02-28T08:26:37;8.60;93.30
4699;DHT22;33708;49.466;11.176;2024-02-28T08:29:03;8.60;93.00
4699;DHT22;33708;49.466;11.176;2024-02-28T08:31:29;8.20;90.00
4699;DHT22;33708;49.466;11.176;2024-02-28T08:33:54;8.30;86.90
4699;DHT22;33708;49.466;11.176;2024-02-28T08:36:21;8.30;87.40
4699;DHT22;33708;49.466;11.176;2024-02-28T08:38:46;8.40;91.50
4699;DHT22;33708;49.466;11.176;2024-02-28T08:41:12;8.50;90.90
4699;DHT22;33708;49.466;11.176;2024-02-28T08:43:39;8.60;91.60
4699;DHT22;33708;49.466;11.176;2024-02-28T08:46:05;8.40;89.70
4699;DHT22;33708;49.466;11.176;2024-02-28T08:48:31;8.50;91.20
4699;DHT22;33708;49.466;11.176;2024-02-28T08:50:57;8.40;90.50
4699;DHT22;33708;49.466;11.176;2024-02-28T08:53:23;8.30;90.50
4699;DHT22;33708;49.466;11.176;2024-02-28T08:55:48;8.40;90.90
4699;DHT22;33708;49.466;11.176;2024-02-28T08:58:14;8.40;90.50
4699;DHT22;33708;49.466;11.176;2024-02-28T09:00:40;8.40;90.80
4699;DHT22;33708;49.466;11.176;2024-02-28T09:03:05;8.30;89.10
4699;DHT22;33708;49.466;11.176;2024-02-28T09:05:31;8.20;89.80
4699;DHT22;33708;49.466;11.176;2024-02-28T09:07:56;8.40;91.10
4699;DHT22;33708;49.466;11.176;2024-02-28T09:10:23;8.20;90.80
4699;DHT22;33708;49.466;11.176;2024-02-28T09:12:51;8.10;97.90
4699;DHT22;33708;49.466;11.176;2024-02-28T09:15:17;8.00;86.60
4699;DHT22;33708;49.466;11.176;2024-02-28T09:17:44;8.10;90.00
4699;DHT22;33708;49.466;11.176;2024-02-28T09:20:10;7.80;86.80
4699;DHT22;33708;49.466;11.176;2024-02-28T09:22:36;8.20;91.20
4699;DHT22;33708;49.466;11.176;2024-02-28T09:25:01;8.40;91.30
4699;DHT22;33708;49.466;11.176;2024-02-28T09:27:30;8.20;88.60
4699;DHT22;33708;49.466;11.176;2024-02-28T09:29:55;8.40;88.90
4699;DHT22;33708;49.466;11.176;2024-02-28T09:32:21;8.00;81.90
4699;DHT22;33708;49.466;11.176;2024-02-28T09:34:46;8.10;83.40
4699;DHT22;33708;49.466;11.176;2024-02-28T09:37:13;8.00;79.70
4699;DHT22;33708;49.466;11.176;2024-02-28T09:39:39;8.20;83.70
4699;DHT22;33708;49.466;11.176;2024-02-28T09:42:06;8.10;79.60
4699;DHT22;33708;49.466;11.176;2024-02-28T09:44:34;8.40;84.10
4699;DHT22;33708;49.466;11.176;2024-02-28T09:46:59;8.30;81.80
4699;DHT22;33708;49.466;11.176;2024-02-28T09:49:26;8.20;79.10
4699;DHT22;33708;49.466;11.176;2024-02-28T09:51:52;8.10;79.80
4699;DHT22;33708;49.466;11.176;2024-02-28T09:54:18;8.00;77.60
4699;DHT22;33708;49.466;11.176;2024-02-28T09:56:44;8.50;84.80
4699;DHT22;33708;49.466;11.176;2024-02-28T09:59:10;8.10;78.10
4699;DHT22;33708;49.466;11.176;2024-02-28T10:01:42;8.50;82.10
4699;DHT22;33708;49.466;11.176;2024-02-28T10:04:10;8.60;84.10
4699;DHT22;33708;49.466;11.176;2024-02-28T10:06:40;8.80;85.00
4699;DHT22;33708;49.466;11.176;2024-02-28T10:09:06;8.90;86.40
4699;DHT22;33708;49.466;11.176;2024-02-28T10:11:33;8.80;82.90
4699;DHT22;33708;49.466;11.176;2024-02-28T10:14:00;9.10;86.40
4699;DHT22;33708;49.466;11.176;2024-02-28T10:16:27;9.10;82.60
4699;DHT22;33708;49.466;11.176;2024-02-28T10:18:52;8.60;76.20
4699;DHT22;33708;49.466;11.176;2024-02-28T10:21:18;8.40;72.00
4699;DHT22;33708;49.466;11.176;2024-02-28T10:23:45;8.00;70.30
4699;DHT22;33708;49.466;11.176;2024-02-28T10:26:11;8.30;72.70
4699;DHT22;33708;49.466;11.176;2024-02-28T10:28:38;8.50;76.00
4699;DHT22;33708;49.466;11.176;2024-02-28T10:31:06;7.50;80.50
4699;DHT22;33708;49.466;11.176;2024-02-28T10:33:32;9.20;83.50
4699;DHT22;33708;49.466;11.176;2024-02-28T10:35:59;9.40;87.90
4699;DHT22;33708;49.466;11.176;2024-02-28T10:38:26;9.40;84.20
4699;DHT22;33708;49.466;11.176;2024-02-28T10:40:53;9.70;98.30
4699;DHT22;33708;49.466;11.176;2024-02-28T10:43:19;9.70;87.40
4699;DHT22;33708;49.466;11.176;2024-02-28T10:45:46;9.80;89.00
4699;DHT22;33708;49.466;11.176;2024-02-28T10:48:14;9.80;86.30
4699;DHT22;33708;49.466;11.176;2024-02-28T10:50:43;10.00;84.90
4699;DHT22;33708;49.466;11.176;2024-02-28T10:53:14;9.80;81.90
4699;DHT22;33708;49.466;11.176;2024-02-28T10:55:41;8.60;67.50
4699;DHT22;33708;49.466;11.176;2024-02-28T10:58:11;8.80;68.70
4699;DHT22;33708;49.466;11.176;2024-02-28T11:00:39;9.40;76.70
4699;DHT22;33708;49.466;11.176;2024-02-28T11:03:04;9.50;78.00
4699;DHT22;33708;49.466;11.176;2024-02-28T11:05:37;9.60;75.70
4699;DHT22;33708;49.466;11.176;2024-02-28T11:08:08;8.90;68.30
4699;DHT22;33708;49.466;11.176;2024-02-28T11:10:34;9.10;68.10
4699;DHT22;33708;49.466;11.176;2024-02-28T11:12:59;8.90;66.30
4699;DHT22;33708;49.466;11.176;2024-02-28T11:15:25;9.10;71.20
4699;DHT22;33708;49.466;11.176;2024-02-28T11:17:53;9.40;73.30
4699;DHT22;33708;49.466;11.176;2024-02-28T11:20:18;9.30;71.90
4699;DHT22;33708;49.466;11.176;2024-02-28T11:22:44;9.30;72.70
4699;DHT22;33708;49.466;11.176;2024-02-28T11:25:10;9.30;71.10
4699;DHT22;33708;49.466;11.176;2024-02-28T11:27:46;9.10;67.70
4699;DHT22;33708;49.466;11.176;2024-02-28T11:30:13;8.70;61.90
4699;DHT22;33708;49.466;11.176;2024-02-28T11:32:38;9.00;64.60
4699;DHT22;33708;49.466;11.176;2024-02-28T11:35:04;9.00;64.90
4699;DHT22;33708;49.466;11.176;2024-02-28T11:37:31;9.10;66.00
4699;DHT22;33708;49.466;11.176;2024-02-28T11:39:57;9.10;66.50
4699;DHT22;33708;49.466;11.176;2024-02-28T11:42:23;9.30;68.60
4699;DHT22;33708;49.466;11.176;2024-02-28T11:44:55;9.40;70.80
4699;DHT22;33708;49.466;11.176;2024-02-28T11:47:23;9.00;64.20
4699;DHT22;33708;49.466;11.176;2024-02-28T11:49:49;9.40;71.00
4699;DHT22;33708;49.466;11.176;2024-02-28T11:52:15;9.80;73.60
4699;DHT22;33708;49.466;11.176;2024-02-28T11:54:40;9.50;70.60
4699;DHT22;33708;49.466;11.176;2024-02-28T11:57:07;9.70;73.10
4699;DHT22;33708;49.466;11.176;2024-02-28T11:59:36;9.40;65.50
4699;DHT22;33708;49.466;11.176;2024-02-28T12:02:11;9.40;65.80
4699;DHT22;33708;49.466;11.176;2024-02-28T12:04:37;9.50;68.00
4699;DHT22;33708;49.466;11.176;2024-02-28T12:07:03;9.90;69.90
4699;DHT22;33708;49.466;11.176;2024-02-28T12:09:30;9.70;70.70
4699;DHT22;33708;49.466;11.176;2024-02-28T12:11:55;9.90;74.30
4699;DHT22;33708;49.466;11.176;2024-02-28T12:14:21;10.20;76.10
4699;DHT22;33708;49.466;11.176;2024-02-28T12:16:48;10.00;71.60
4699;DHT22;33708;49.466;11.176;2024-02-28T12:19:13;9.50;65.20
4699;DHT22;33708;49.466;11.176;2024-02-28T12:21:40;9.40;68.60
4699;DHT22;33708;49.466;11.176;2024-02-28T12:24:10;10.00;72.70
4699;DHT22;33708;49.466;11.176;2024-02-28T12:26:37;10.20;90.60
4699;DHT22;33708;49.466;11.176;2024-02-28T12:29:02;10.40;76.50
4699;DHT22;33708;49.466;11.176;2024-02-28T12:31:28;10.40;74.10
4699;DHT22;33708;49.466;11.176;2024-02-28T12:33:54;10.40;72.60
4699;DHT22;33708;49.466;11.176;2024-02-28T12:36:20;10.40;70.50
4699;DHT22;33708;49.466;11.176;2024-02-28T12:38:46;10.40;71.40
4699;DHT22;33708;49.466;11.176;2024-02-28T12:41:12;10.50;70.30
4699;DHT22;33708;49.466;11.176;2024-02-28T12:43:38;10.70;73.60
4699;DHT22;33708;49.466;11.176;2024-02-28T12:46:05;10.80;72.50
4699;DHT22;33708;49.466;11.176;2024-02-28T12:48:31;10.90;74.90
4699;DHT22;33708;49.466;11.176;2024-02-28T12:51:02;11.10;77.30
4699;DHT22;33708;49.466;11.176;2024-02-28T12:53:27;11.50;83.20
4699;DHT22;33708;49.466;11.176;2024-02-28T12:55:53;11.80;85.50
4699;DHT22;33708;49.466;11.176;2024-02-28T12:58:18;11.90;83.60
4699;DHT22;33708;49.466;11.176;2024-02-28T13:00:44;11.80;75.70
4699;DHT22;33708;49.466;11.176;2024-02-28T13:03:10;11.50;71.90
4699;DHT22;33708;49.466;11.176;2024-02-28T13:05:35;11.00;63.40
4699;DHT22;33708;49.466;11.176;2024-02-28T13:08:01;10.70;59.10
4699;DHT22;33708;49.466;11.176;2024-02-28T13:10:27;10.50;55.80
4699;DHT22;33708;49.466;11.176;2024-02-28T13:12:52;10.60;60.40
4699;DHT22;33708;49.466;11.176;2024-02-28T13:15:18;10.60;72.20
4699;DHT22;33708;49.466;11.176;2024-02-28T13:17:44;10.80;60.50
4699;DHT22;33708;49.466;11.176;2024-02-28T13:20:12;10.70;56.90
4699;DHT22;33708;49.466;11.176;2024-02-28T13:22:37;10.50;50.40
4699;DHT22;33708;49.466;11.176;2024-02-28T13:25:03;10.50;57.40
4699;DHT22;33708;49.466;11.176;2024-02-28T13:27:29;10.40;56.30
4699;DHT22;33708;49.466;11.176;2024-02-28T13:29:55;10.50;58.00
4699;DHT22;33708;49.466;11.176;2024-02-28T13:32:21;10.60;59.70
4699;DHT22;33708;49.466;11.176;2024-02-28T13:34:46;10.90;60.00
4699;DHT22;33708;49.466;11.176;2024-02-28T13:37:12;10.90;64.00
4699;DHT22;33708;49.466;11.176;2024-02-28T13:39:38;10.80;74.70
4699;DHT22;33708;49.466;11.176;2024-02-28T13:42:03;11.10;63.70
4699;DHT22;33708;49.466;11.176;2024-02-28T13:44:31;11.40;67.30
4699;DHT22;33708;49.466;11.176;2024-02-28T13:46:57;11.20;64.50
4699;DHT22;33708;49.466;11.176;2024-02-28T13:49:23;11.20;59.40
4699;DHT22;33708;49.466;11.176;2024-02-28T13:51:48;11.20;61.10
4699;DHT22;33708;49.466;11.176;2024-02-28T13:54:15;11.20;58.80
4699;DHT22;33708;49.466;11.176;2024-02-28T13:56:41;11.30;62.80
4699;DHT22;33708;49.466;11.176;2024-02-28T13:59:06;11.20;60.80
4699;DHT22;33708;49.466;11.176;2024-02-28T14:01:32;11.20;59.80
4699;DHT22;33708;49.466;11.176;2024-02-28T14:03:58;11.00;56.50
4699;DHT22;33708;49.466;11.176;2024-02-28T14:06:23;11.20;59.30
4699;DHT22;33708;49.466;11.176;2024-02-28T14:08:49;11.20;58.50
4699;DHT22;33708;49.466;11.176;2024-02-28T14:11:17;11.40;60.40
4699;DHT22;33708;49.466;11.176;2024-02-28T14:13:43;11.50;61.70
4699;DHT22;33708;49.466;11.176;2024-02-28T14:16:08;11.90;64.20
4699;DHT22;33708;49.466;11.176;2024-02-28T14:18:34;11.30;53.90
4699;DHT22;33708;49.466;11.176;2024-02-28T14:21:00;11.00;49.80
4699;DHT22;33708;49.466;11.176;2024-02-28T14:23:27;11.00;53.50
4699;DHT22;33708;49.466;11.176;2024-02-28T14:25:53;11.20;52.90
4699;DHT22;33708;49.466;11.176;2024-02-28T14:28:18;10.90;48.00
4699;DHT22;33708;49.466;11.176;2024-02-28T14:30:44;11.10;51.10
4699;DHT22;33708;49.466;11.176;2024-02-28T14:33:11;11.00;46.90
4699;DHT22;33708;49.466;11.176;2024-02-28T14:35:37;10.70;45.10
4699;DHT22;33708;49.466;11.176;2024-02-28T14:38:04;10.40;39.70
4699;DHT22;33708;49.466;11.176;2024-02-28T14:40:31;10.30;40.30
4699;DHT22;33708;49.466;11.176;2024-02-28T14:42:57;10.60;48.70
4699;DHT22;33708;49.466;11.176;2024-02-28T14:45:23;10.50;48.40
4699;DHT22;33708;49.466;11.176;2024-02-28T14:47:50;10.30;43.00
4699;DHT22;33708;49.466;11.176;2024-02-28T14:50:15;10.20;41.70
4699;DHT22;33708;49.466;11.176;2024-02-28T14:52:41;10.10;42.80
4699;DHT22;33708;49.466;11.176;2024-02-28T14:55:08;10.30;45.70
4699;DHT22;33708;49.466;11.176;2024-02-28T14:57:38;10.30;46.90
4699;DHT22;33708;49.466;11.176;2024-02-28T15:00:04;10.40;48.00
4699;DHT22;33708;49.466;11.176;2024-02-28T15:02:36;10.80;53.10
4699;DHT22;33708;49.466;11.176;2024-02-28T15:05:02;10.90;52.80
4699;DHT22;33708;49.466;11.176;2024-02-28T15:07:32;11.00;53.50
4699;DHT22;33708;49.466;11.176;2024-02-28T15:09:57;10.80;49.70
4699;DHT22;33708;49.466;11.176;2024-02-28T15:12:26;10.60;42.20
4699;DHT22;33708;49.466;11.176;2024-02-28T15:14:52;10.60;45.20
4699;DHT22;33708;49.466;11.176;2024-02-28T15:17:19;10.40;40.70
4699;DHT22;33708;49.466;11.176;2024-02-28T15:19:45;10.40;42.30
4699;DHT22;33708;49.466;11.176;2024-02-28T15:22:11;10.50;44.00
4699;DHT22;33708;49.466;11.176;2024-02-28T15:24:36;10.40;44.00
4699;DHT22;33708;49.466;11.176;2024-02-28T15:27:03;10.60;47.10
4699;DHT22;33708;49.466;11.176;2024-02-28T15:29:29;10.70;50.50
4699;DHT22;33708;49.466;11.176;2024-02-28T15:31:54;10.90;51.50
4699;DHT22;33708;49.466;11.176;2024-02-28T15:34:20;10.70;47.30
4699;DHT22;33708;49.466;11.176;2024-02-28T15:36:46;10.60;44.70